sensor_id;sensor_type;location;lat;lon;timestamp;P1;durP1;ratioP1;P2;durP2;ratioP2
579;SDS011;276;48.392;9.950;2022-10-17T00:02:00;3.70;;;2.40;;
579;SDS011;276;48.392;9.950;2022-10-17T00:04:26;3.83;;;2.00;;
579;SDS011;276;48.392;9.950;2022-10-17T00:06:51;5.63;;;2.30;;
579;SDS011;276;48.392;9.950;2022-10-17T00:09:17;4.30;;;1.97;;
579;SDS011;276;48.392;9.950;2022-10-17T00:11:42;2.03;;;1.93;;
579;SDS011;276;48.392;9.950;2022-10-17T00:14:08;1.83;;;1.73;;
579;SDS011;276;48.392;9.950;2022-10-17T00:16:34;5.47;;;1.97;;
579;SDS011;276;48.392;9.950;2022-10-17T00:19:02;2.93;;;2.70;;
579;SDS011;276;48.392;9.950;2022-10-17T00:21:28;6.33;;;2.73;;
579;SDS011;276;48.392;9.950;2022-10-17T00:23:54;2.90;;;2.37;;
579;SDS011;276;48.392;9.950;2022-10-17T00:26:20;1.93;;;1.83;;
579;SDS011;276;48.392;9.950;2022-10-17T00:28:46;3.40;;;2.10;;
579;SDS011;276;48.392;9.950;2022-10-17T00:31:12;3.83;;;2.27;;
579;SDS011;276;48.392;9.950;2022-10-17T00:33:38;3.83;;;2.23;;
579;SDS011;276;48.392;9.950;2022-10-17T00:36:23;5.07;;;2.30;;
579;SDS011;276;48.392;9.950;2022-10-17T00:38:53;3.20;;;2.27;;
579;SDS011;276;48.392;9.950;2022-10-17T00:41:22;2.70;;;2.50;;
579;SDS011;276;48.392;9.950;2022-10-17T00:44:00;1.87;;;1.77;;
579;SDS011;276;48.392;9.950;2022-10-17T00:46:29;3.73;;;2.60;;
579;SDS011;276;48.392;9.950;2022-10-17T00:48:58;2.70;;;2.50;;
579;SDS011;276;48.392;9.950;2022-10-17T00:51:32;2.47;;;2.27;;
579;SDS011;276;48.392;9.950;2022-10-17T00:54:02;2.60;;;2.40;;
579;SDS011;276;48.392;9.950;2022-10-17T00:56:28;3.57;;;2.07;;
579;SDS011;276;48.392;9.950;2022-10-17T00:59:00;2.67;;;2.50;;
579;SDS011;276;48.392;9.950;2022-10-17T01:01:26;2.83;;;1.90;;
579;SDS011;276;48.392;9.950;2022-10-17T01:03:52;4.30;;;2.40;;
579;SDS011;276;48.392;9.950;2022-10-17T01:06:17;7.17;;;2.70;;
579;SDS011;276;48.392;9.950;2022-10-17T01:08:43;4.63;;;2.40;;
579;SDS011;276;48.392;9.950;2022-10-17T01:19:07;2.83;;;2.63;;
579;SDS011;276;48.392;9.950;2022-10-17T01:22:02;3.63;;;2.83;;
579;SDS011;276;48.392;9.950;2022-10-17T01:24:47;5.67;;;3.00;;
579;SDS011;276;48.392;9.950;2022-10-17T01:27:35;2.77;;;2.43;;
579;SDS011;276;48.392;9.950;2022-10-17T01:38:40;3.47;;;1.83;;
579;SDS011;276;48.392;9.950;2022-10-17T01:44:11;3.87;;;2.30;;
579;SDS011;276;48.392;9.950;2022-10-17T01:46:43;6.03;;;2.43;;
579;SDS011;276;48.392;9.950;2022-10-17T01:49:14;3.00;;;2.80;;
579;SDS011;276;48.392;9.950;2022-10-17T01:51:45;3.43;;;2.87;;
579;SDS011;276;48.392;9.950;2022-10-17T01:56:53;4.60;;;2.70;;
579;SDS011;276;48.392;9.950;2022-10-17T01:59:23;5.47;;;2.33;;
579;SDS011;276;48.392;9.950;2022-10-17T02:01:53;3.30;;;2.33;;
579;SDS011;276;48.392;9.950;2022-10-17T02:04:22;5.03;;;2.60;;
579;SDS011;276;48.392;9.950;2022-10-17T02:06:49;3.60;;;3.13;;
579;SDS011;276;48.392;9.950;2022-10-17T02:11:44;3.07;;;2.77;;
579;SDS011;276;48.392;9.950;2022-10-17T02:20:30;4.10;;;2.33;;
579;SDS011;276;48.392;9.950;2022-10-17T02:23:12;2.87;;;2.57;;
579;SDS011;276;48.392;9.950;2022-10-17T02:31:44;2.77;;;2.20;;
579;SDS011;276;48.392;9.950;2022-10-17T02:34:35;3.60;;;2.30;;
579;SDS011;276;48.392;9.950;2022-10-17T02:37:06;3.03;;;2.60;;
579;SDS011;276;48.392;9.950;2022-10-17T02:39:34;4.00;;;2.67;;
579;SDS011;276;48.392;9.950;2022-10-17T02:42:06;4.40;;;2.63;;
579;SDS011;276;48.392;9.950;2022-10-17T02:44:35;2.83;;;2.63;;
579;SDS011;276;48.392;9.950;2022-10-17T02:47:11;4.27;;;2.50;;
579;SDS011;276;48.392;9.950;2022-10-17T02:49:49;3.07;;;2.73;;
579;SDS011;276;48.392;9.950;2022-10-17T02:55:10;2.63;;;2.43;;
579;SDS011;276;48.392;9.950;2022-10-17T02:57:45;2.80;;;2.30;;
579;SDS011;276;48.392;9.950;2022-10-17T03:00:14;3.20;;;2.70;;
579;SDS011;276;48.392;9.950;2022-10-17T03:05:11;3.33;;;2.50;;
579;SDS011;276;48.392;9.950;2022-10-17T03:07:39;3.70;;;2.60;;
579;SDS011;276;48.392;9.950;2022-10-17T03:10:05;3.30;;;2.60;;
579;SDS011;276;48.392;9.950;2022-10-17T03:12:31;2.87;;;2.67;;
579;SDS011;276;48.392;9.950;2022-10-17T03:14:59;4.00;;;3.00;;
579;SDS011;276;48.392;9.950;2022-10-17T03:17:24;3.63;;;3.40;;
579;SDS011;276;48.392;9.950;2022-10-17T03:19:52;6.83;;;2.80;;
579;SDS011;276;48.392;9.950;2022-10-17T03:22:18;2.77;;;2.57;;
579;SDS011;276;48.392;9.950;2022-10-17T03:24:43;4.20;;;2.70;;
579;SDS011;276;48.392;9.950;2022-10-17T03:27:11;2.60;;;2.40;;
579;SDS011;276;48.392;9.950;2022-10-17T03:29:39;2.57;;;2.37;;
579;SDS011;276;48.392;9.950;2022-10-17T03:32:07;2.50;;;2.30;;
579;SDS011;276;48.392;9.950;2022-10-17T03:34:37;4.10;;;2.60;;
579;SDS011;276;48.392;9.950;2022-10-17T03:37:05;4.13;;;2.57;;
579;SDS011;276;48.392;9.950;2022-10-17T03:39:35;4.77;;;2.63;;
579;SDS011;276;48.392;9.950;2022-10-17T03:42:01;2.80;;;2.60;;
579;SDS011;276;48.392;9.950;2022-10-17T03:44:27;4.60;;;2.70;;
579;SDS011;276;48.392;9.950;2022-10-17T03:46:54;3.83;;;2.87;;
579;SDS011;276;48.392;9.950;2022-10-17T03:49:22;4.80;;;2.97;;
579;SDS011;276;48.392;9.950;2022-10-17T03:51:52;5.53;;;2.90;;
579;SDS011;276;48.392;9.950;2022-10-17T03:54:22;2.77;;;2.57;;
579;SDS011;276;48.392;9.950;2022-10-17T03:56:50;3.03;;;2.70;;
579;SDS011;276;48.392;9.950;2022-10-17T03:59:20;3.40;;;2.83;;
579;SDS011;276;48.392;9.950;2022-10-17T04:01:48;2.87;;;2.60;;
579;SDS011;276;48.392;9.950;2022-10-17T04:04:16;2.83;;;2.63;;
579;SDS011;276;48.392;9.950;2022-10-17T04:06:47;3.83;;;3.10;;
579;SDS011;276;48.392;9.950;2022-10-17T04:09:12;4.30;;;3.20;;
579;SDS011;276;48.392;9.950;2022-10-17T04:11:43;3.60;;;3.30;;
579;SDS011;276;48.392;9.950;2022-10-17T04:14:08;3.90;;;2.80;;
579;SDS011;276;48.392;9.950;2022-10-17T04:16:34;4.07;;;3.67;;
579;SDS011;276;48.392;9.950;2022-10-17T04:19:00;6.53;;;3.43;;
579;SDS011;276;48.392;9.950;2022-10-17T04:21:30;3.97;;;3.67;;
579;SDS011;276;48.392;9.950;2022-10-17T04:23:57;3.67;;;3.33;;
579;SDS011;276;48.392;9.950;2022-10-17T04:26:25;4.20;;;3.80;;
579;SDS011;276;48.392;9.950;2022-10-17T04:28:55;3.27;;;3.07;;
579;SDS011;276;48.392;9.950;2022-10-17T04:31:21;3.57;;;3.27;;
579;SDS011;276;48.392;9.950;2022-10-17T04:33:49;5.40;;;3.90;;
579;SDS011;276;48.392;9.950;2022-10-17T04:36:18;14.93;;;6.37;;
579;SDS011;276;48.392;9.950;2022-10-17T04:38:44;4.60;;;3.80;;
579;SDS011;276;48.392;9.950;2022-10-17T04:41:11;5.50;;;3.80;;
579;SDS011;276;48.392;9.950;2022-10-17T04:43:43;5.97;;;3.50;;
579;SDS011;276;48.392;9.950;2022-10-17T04:46:10;5.20;;;4.40;;
579;SDS011;276;48.392;9.950;2022-10-17T04:48:39;4.50;;;3.50;;
579;SDS011;276;48.392;9.950;2022-10-17T04:51:09;4.60;;;3.87;;
579;SDS011;276;48.392;9.950;2022-10-17T04:53:39;6.20;;;4.27;;
579;SDS011;276;48.392;9.950;2022-10-17T04:56:15;6.97;;;4.90;;
579;SDS011;276;48.392;9.950;2022-10-17T04:58:47;5.10;;;3.67;;
579;SDS011;276;48.392;9.950;2022-10-17T05:01:18;5.03;;;4.50;;
579;SDS011;276;48.392;9.950;2022-10-17T05:03:45;12.50;;;4.90;;
579;SDS011;276;48.392;9.950;2022-10-17T05:06:14;6.17;;;4.90;;
579;SDS011;276;48.392;9.950;2022-10-17T05:08:44;5.20;;;4.77;;
579;SDS011;276;48.392;9.950;2022-10-17T05:13:53;4.03;;;3.73;;
579;SDS011;276;48.392;9.950;2022-10-17T05:16:26;5.50;;;4.70;;
579;SDS011;276;48.392;9.950;2022-10-17T05:18:53;5.60;;;4.17;;
579;SDS011;276;48.392;9.950;2022-10-17T05:21:20;4.27;;;3.87;;
579;SDS011;276;48.392;9.950;2022-10-17T05:23:50;9.03;;;4.27;;
579;SDS011;276;48.392;9.950;2022-10-17T05:26:18;5.20;;;4.07;;
579;SDS011;276;48.392;9.950;2022-10-17T05:28:44;3.90;;;3.50;;
579;SDS011;276;48.392;9.950;2022-10-17T05:31:12;4.07;;;3.67;;
579;SDS011;276;48.392;9.950;2022-10-17T05:33:40;3.30;;;3.00;;
579;SDS011;276;48.392;9.950;2022-10-17T05:36:08;5.20;;;3.27;;
579;SDS011;276;48.392;9.950;2022-10-17T05:38:34;4.23;;;3.83;;
579;SDS011;276;48.392;9.950;2022-10-17T05:41:00;3.73;;;3.43;;
579;SDS011;276;48.392;9.950;2022-10-17T05:43:30;3.83;;;3.27;;
579;SDS011;276;48.392;9.950;2022-10-17T05:45:59;5.40;;;3.50;;
579;SDS011;276;48.392;9.950;2022-10-17T05:48:27;4.77;;;4.27;;
579;SDS011;276;48.392;9.950;2022-10-17T05:50:58;4.67;;;4.27;;
579;SDS011;276;48.392;9.950;2022-10-17T05:53:32;4.97;;;4.27;;
579;SDS011;276;48.392;9.950;2022-10-17T05:56:04;6.13;;;4.80;;
579;SDS011;276;48.392;9.950;2022-10-17T05:58:32;5.03;;;4.50;;
579;SDS011;276;48.392;9.950;2022-10-17T06:01:03;5.10;;;4.47;;
579;SDS011;276;48.392;9.950;2022-10-17T06:03:32;5.30;;;4.80;;
579;SDS011;276;48.392;9.950;2022-10-17T06:06:07;4.03;;;3.73;;
579;SDS011;276;48.392;9.950;2022-10-17T06:08:35;3.83;;;3.53;;
579;SDS011;276;48.392;9.950;2022-10-17T06:11:03;3.20;;;2.73;;
579;SDS011;276;48.392;9.950;2022-10-17T06:13:29;3.73;;;3.43;;
579;SDS011;276;48.392;9.950;2022-10-17T06:15:57;3.23;;;3.03;;
579;SDS011;276;48.392;9.950;2022-10-17T06:18:23;4.10;;;3.70;;
579;SDS011;276;48.392;9.950;2022-10-17T06:20:53;3.70;;;3.40;;
579;SDS011;276;48.392;9.950;2022-10-17T06:23:21;3.73;;;3.43;;
579;SDS011;276;48.392;9.950;2022-10-17T06:25:46;7.70;;;3.63;;
579;SDS011;276;48.392;9.950;2022-10-17T06:28:12;3.90;;;3.50;;
579;SDS011;276;48.392;9.950;2022-10-17T06:30:39;6.10;;;3.63;;
579;SDS011;276;48.392;9.950;2022-10-17T06:33:04;3.97;;;3.50;;
579;SDS011;276;48.392;9.950;2022-10-17T06:35:30;3.40;;;3.20;;
579;SDS011;276;48.392;9.950;2022-10-17T06:37:56;5.03;;;3.27;;
579;SDS011;276;48.392;9.950;2022-10-17T06:40:21;3.87;;;3.57;;
579;SDS011;276;48.392;9.950;2022-10-17T06:42:49;5.10;;;4.00;;
579;SDS011;276;48.392;9.950;2022-10-17T06:45:17;5.20;;;3.90;;
579;SDS011;276;48.392;9.950;2022-10-17T06:47:43;4.93;;;4.03;;
579;SDS011;276;48.392;9.950;2022-10-17T06:50:11;4.43;;;4.03;;
579;SDS011;276;48.392;9.950;2022-10-17T06:52:36;5.20;;;4.70;;
579;SDS011;276;48.392;9.950;2022-10-17T06:55:04;4.00;;;3.60;;
579;SDS011;276;48.392;9.950;2022-10-17T06:57:30;3.37;;;3.07;;
579;SDS011;276;48.392;9.950;2022-10-17T06:59:56;6.50;;;4.17;;
579;SDS011;276;48.392;9.950;2022-10-17T07:02:22;4.10;;;3.70;;
579;SDS011;276;48.392;9.950;2022-10-17T07:04:48;3.87;;;3.33;;
579;SDS011;276;48.392;9.950;2022-10-17T07:07:16;5.70;;;3.90;;
579;SDS011;276;48.392;9.950;2022-10-17T07:09:47;7.37;;;4.70;;
579;SDS011;276;48.392;9.950;2022-10-17T07:12:12;4.10;;;3.77;;
579;SDS011;276;48.392;9.950;2022-10-17T07:14:38;3.60;;;3.30;;
579;SDS011;276;48.392;9.950;2022-10-17T07:17:03;9.90;;;3.80;;
579;SDS011;276;48.392;9.950;2022-10-17T07:19:34;4.83;;;4.00;;
579;SDS011;276;48.392;9.950;2022-10-17T07:22:02;3.63;;;3.23;;
579;SDS011;276;48.392;9.950;2022-10-17T07:24:27;4.13;;;3.43;;
579;SDS011;276;48.392;9.950;2022-10-17T07:26:53;7.20;;;3.20;;
579;SDS011;276;48.392;9.950;2022-10-17T07:29:23;4.93;;;3.20;;
579;SDS011;276;48.392;9.950;2022-10-17T07:31:51;4.60;;;4.20;;
579;SDS011;276;48.392;9.950;2022-10-17T07:34:19;4.03;;;3.40;;
579;SDS011;276;48.392;9.950;2022-10-17T07:36:51;3.47;;;3.13;;
579;SDS011;276;48.392;9.950;2022-10-17T07:39:20;6.00;;;3.60;;
579;SDS011;276;48.392;9.950;2022-10-17T07:41:53;3.50;;;3.20;;
579;SDS011;276;48.392;9.950;2022-10-17T07:44:22;3.93;;;3.10;;
579;SDS011;276;48.392;9.950;2022-10-17T07:46:50;2.67;;;2.47;;
579;SDS011;276;48.392;9.950;2022-10-17T07:49:18;4.30;;;3.53;;
579;SDS011;276;48.392;9.950;2022-10-17T07:51:46;3.13;;;2.80;;
579;SDS011;276;48.392;9.950;2022-10-17T07:54:12;2.80;;;2.60;;
579;SDS011;276;48.392;9.950;2022-10-17T07:56:40;2.47;;;2.37;;
579;SDS011;276;48.392;9.950;2022-10-17T07:59:14;3.40;;;3.10;;
579;SDS011;276;48.392;9.950;2022-10-17T08:01:45;7.07;;;3.50;;
579;SDS011;276;48.392;9.950;2022-10-17T08:04:13;4.33;;;3.93;;
579;SDS011;276;48.392;9.950;2022-10-17T08:06:41;3.17;;;2.97;;
579;SDS011;276;48.392;9.950;2022-10-17T08:09:09;3.80;;;3.50;;
579;SDS011;276;48.392;9.950;2022-10-17T08:11:37;5.80;;;3.53;;
579;SDS011;276;48.392;9.950;2022-10-17T08:14:08;4.63;;;3.80;;
579;SDS011;276;48.392;9.950;2022-10-17T08:16:38;4.00;;;3.50;;
579;SDS011;276;48.392;9.950;2022-10-17T08:19:04;5.60;;;4.07;;
579;SDS011;276;48.392;9.950;2022-10-17T08:21:30;3.33;;;3.00;;
579;SDS011;276;48.392;9.950;2022-10-17T08:23:58;4.80;;;4.00;;
579;SDS011;276;48.392;9.950;2022-10-17T08:26:29;7.07;;;4.27;;
579;SDS011;276;48.392;9.950;2022-10-17T08:28:57;4.40;;;4.00;;
579;SDS011;276;48.392;9.950;2022-10-17T08:31:22;4.30;;;3.80;;
579;SDS011;276;48.392;9.950;2022-10-17T08:33:48;3.47;;;3.20;;
579;SDS011;276;48.392;9.950;2022-10-17T08:36:17;5.97;;;4.60;;
579;SDS011;276;48.392;9.950;2022-10-17T08:38:45;4.43;;;4.03;;
579;SDS011;276;48.392;9.950;2022-10-17T08:46:44;4.80;;;4.40;;
579;SDS011;276;48.392;9.950;2022-10-17T08:49:17;6.13;;;5.20;;
579;SDS011;276;48.392;9.950;2022-10-17T08:51:51;7.37;;;3.97;;
579;SDS011;276;48.392;9.950;2022-10-17T08:54:27;5.00;;;4.60;;
579;SDS011;276;48.392;9.950;2022-10-17T08:57:07;4.97;;;4.57;;
579;SDS011;276;48.392;9.950;2022-10-17T08:59:40;4.37;;;3.97;;
579;SDS011;276;48.392;9.950;2022-10-17T09:05:04;4.80;;;3.87;;
579;SDS011;276;48.392;9.950;2022-10-17T09:11:01;6.03;;;4.60;;
579;SDS011;276;48.392;9.950;2022-10-17T09:19:07;5.10;;;4.23;;
579;SDS011;276;48.392;9.950;2022-10-17T09:21:47;5.63;;;4.60;;
579;SDS011;276;48.392;9.950;2022-10-17T09:24:48;6.00;;;4.60;;
579;SDS011;276;48.392;9.950;2022-10-17T09:27:32;5.57;;;3.27;;
579;SDS011;276;48.392;9.950;2022-10-17T09:33:15;4.57;;;4.00;;
579;SDS011;276;48.392;9.950;2022-10-17T09:35:44;4.37;;;3.70;;
579;SDS011;276;48.392;9.950;2022-10-17T09:38:21;6.33;;;4.50;;
579;SDS011;276;48.392;9.950;2022-10-17T09:40:56;4.80;;;3.27;;
579;SDS011;276;48.392;9.950;2022-10-17T09:43:25;5.43;;;4.70;;
579;SDS011;276;48.392;9.950;2022-10-17T09:46:03;4.13;;;3.83;;
579;SDS011;276;48.392;9.950;2022-10-17T09:51:11;4.23;;;3.93;;
579;SDS011;276;48.392;9.950;2022-10-17T09:53:44;5.17;;;4.87;;
579;SDS011;276;48.392;9.950;2022-10-17T09:56:15;4.53;;;4.00;;
579;SDS011;276;48.392;9.950;2022-10-17T09:58:43;5.67;;;4.90;;
579;SDS011;276;48.392;9.950;2022-10-17T10:06:38;6.53;;;5.73;;
579;SDS011;276;48.392;9.950;2022-10-17T10:09:19;4.47;;;4.07;;
579;SDS011;276;48.392;9.950;2022-10-17T10:11:53;10.53;;;5.37;;
579;SDS011;276;48.392;9.950;2022-10-17T10:16:59;4.03;;;3.73;;
579;SDS011;276;48.392;9.950;2022-10-17T10:21:56;4.20;;;3.80;;
579;SDS011;276;48.392;9.950;2022-10-17T10:24:22;3.90;;;3.60;;
579;SDS011;276;48.392;9.950;2022-10-17T10:26:50;3.60;;;3.30;;
579;SDS011;276;48.392;9.950;2022-10-17T10:31:54;3.57;;;3.27;;
579;SDS011;276;48.392;9.950;2022-10-17T10:34:34;3.50;;;2.90;;
579;SDS011;276;48.392;9.950;2022-10-17T10:37:17;5.13;;;3.23;;
579;SDS011;276;48.392;9.950;2022-10-17T10:39:51;3.60;;;3.20;;
579;SDS011;276;48.392;9.950;2022-10-17T10:42:32;2.70;;;2.50;;
579;SDS011;276;48.392;9.950;2022-10-17T10:45:04;2.87;;;2.67;;
579;SDS011;276;48.392;9.950;2022-10-17T10:50:30;3.70;;;3.03;;
579;SDS011;276;48.392;9.950;2022-10-17T10:53:09;2.63;;;2.43;;
579;SDS011;276;48.392;9.950;2022-10-17T11:01:11;3.47;;;2.80;;
579;SDS011;276;48.392;9.950;2022-10-17T11:04:05;2.70;;;2.53;;
579;SDS011;276;48.392;9.950;2022-10-17T11:06:36;3.27;;;2.50;;
579;SDS011;276;48.392;9.950;2022-10-17T11:09:12;7.30;;;3.20;;
579;SDS011;276;48.392;9.950;2022-10-17T11:11:39;2.20;;;1.93;;
579;SDS011;276;48.392;9.950;2022-10-17T11:22:31;2.07;;;1.90;;
579;SDS011;276;48.392;9.950;2022-10-17T11:25:04;5.70;;;3.07;;
579;SDS011;276;48.392;9.950;2022-10-17T11:27:38;2.43;;;2.23;;
579;SDS011;276;48.392;9.950;2022-10-17T11:30:08;2.57;;;2.37;;
579;SDS011;276;48.392;9.950;2022-10-17T11:32:41;3.00;;;2.80;;
579;SDS011;276;48.392;9.950;2022-10-17T11:40:56;5.20;;;2.47;;
579;SDS011;276;48.392;9.950;2022-10-17T11:43:37;2.60;;;2.40;;
579;SDS011;276;48.392;9.950;2022-10-17T11:46:12;3.57;;;3.07;;
579;SDS011;276;48.392;9.950;2022-10-17T11:51:21;2.67;;;2.47;;
579;SDS011;276;48.392;9.950;2022-10-17T11:53:49;3.67;;;2.90;;
579;SDS011;276;48.392;9.950;2022-10-17T11:56:24;2.80;;;2.60;;
579;SDS011;276;48.392;9.950;2022-10-17T12:01:53;2.70;;;2.50;;
579;SDS011;276;48.392;9.950;2022-10-17T12:04:46;4.00;;;2.70;;
579;SDS011;276;48.392;9.950;2022-10-17T12:07:33;4.20;;;2.90;;
579;SDS011;276;48.392;9.950;2022-10-17T12:12:54;3.87;;;3.00;;
579;SDS011;276;48.392;9.950;2022-10-17T12:17:58;2.73;;;2.53;;
579;SDS011;276;48.392;9.950;2022-10-17T12:20:28;2.80;;;2.30;;
579;SDS011;276;48.392;9.950;2022-10-17T12:25:51;3.20;;;2.90;;
579;SDS011;276;48.392;9.950;2022-10-17T12:38:45;3.83;;;2.47;;
579;SDS011;276;48.392;9.950;2022-10-17T12:41:15;3.17;;;2.87;;
579;SDS011;276;48.392;9.950;2022-10-17T12:44:00;2.30;;;2.20;;
579;SDS011;276;48.392;9.950;2022-10-17T12:49:44;2.50;;;2.20;;
579;SDS011;276;48.392;9.950;2022-10-17T12:55:23;2.67;;;2.47;;
579;SDS011;276;48.392;9.950;2022-10-17T13:02:49;3.50;;;3.20;;
579;SDS011;276;48.392;9.950;2022-10-17T13:05:21;2.80;;;2.60;;
579;SDS011;276;48.392;9.950;2022-10-17T13:07:58;3.20;;;3.00;;
579;SDS011;276;48.392;9.950;2022-10-17T13:10:27;4.03;;;2.73;;
579;SDS011;276;48.392;9.950;2022-10-17T13:16:02;2.90;;;2.60;;
579;SDS011;276;48.392;9.950;2022-10-17T13:18:28;2.77;;;2.57;;
579;SDS011;276;48.392;9.950;2022-10-17T13:20:55;6.40;;;2.30;;
579;SDS011;276;48.392;9.950;2022-10-17T13:23:21;3.40;;;3.10;;
579;SDS011;276;48.392;9.950;2022-10-17T13:28:34;2.67;;;2.47;;
579;SDS011;276;48.392;9.950;2022-10-17T13:31:00;4.10;;;2.47;;
579;SDS011;276;48.392;9.950;2022-10-17T13:33:36;5.20;;;2.90;;
579;SDS011;276;48.392;9.950;2022-10-17T13:36:05;2.70;;;2.50;;
579;SDS011;276;48.392;9.950;2022-10-17T13:38:39;3.07;;;2.53;;
579;SDS011;276;48.392;9.950;2022-10-17T13:41:09;2.80;;;2.33;;
579;SDS011;276;48.392;9.950;2022-10-17T13:43:38;2.50;;;2.30;;
579;SDS011;276;48.392;9.950;2022-10-17T13:46:04;2.70;;;2.50;;
579;SDS011;276;48.392;9.950;2022-10-17T13:48:34;2.43;;;2.23;;
579;SDS011;276;48.392;9.950;2022-10-17T13:51:04;3.67;;;2.70;;
579;SDS011;276;48.392;9.950;2022-10-17T13:53:34;4.40;;;2.43;;
579;SDS011;276;48.392;9.950;2022-10-17T13:58:52;3.30;;;2.50;;
579;SDS011;276;48.392;9.950;2022-10-17T14:01:24;2.47;;;2.20;;
579;SDS011;276;48.392;9.950;2022-10-17T14:03:51;2.70;;;2.37;;
579;SDS011;276;48.392;9.950;2022-10-17T14:06:23;2.90;;;2.07;;
579;SDS011;276;48.392;9.950;2022-10-17T14:11:35;2.40;;;2.30;;
579;SDS011;276;48.392;9.950;2022-10-17T14:14:03;2.93;;;2.53;;
579;SDS011;276;48.392;9.950;2022-10-17T14:16:33;4.00;;;2.40;;
579;SDS011;276;48.392;9.950;2022-10-17T14:19:04;2.97;;;2.67;;
579;SDS011;276;48.392;9.950;2022-10-17T14:21:39;2.33;;;2.13;;
579;SDS011;276;48.392;9.950;2022-10-17T14:24:12;2.27;;;2.13;;
579;SDS011;276;48.392;9.950;2022-10-17T14:26:54;6.80;;;2.90;;
579;SDS011;276;48.392;9.950;2022-10-17T14:34:30;2.53;;;2.33;;
579;SDS011;276;48.392;9.950;2022-10-17T14:37:02;2.33;;;2.23;;
579;SDS011;276;48.392;9.950;2022-10-17T14:39:51;2.30;;;2.20;;
579;SDS011;276;48.392;9.950;2022-10-17T14:42:20;6.07;;;2.53;;
579;SDS011;276;48.392;9.950;2022-10-17T14:44:50;2.60;;;2.40;;
579;SDS011;276;48.392;9.950;2022-10-17T14:47:21;4.30;;;2.33;;
579;SDS011;276;48.392;9.950;2022-10-17T14:50:01;5.17;;;2.50;;
579;SDS011;276;48.392;9.950;2022-10-17T14:52:36;3.13;;;2.80;;
579;SDS011;276;48.392;9.950;2022-10-17T14:55:19;6.20;;;3.20;;
579;SDS011;276;48.392;9.950;2022-10-17T14:57:47;5.00;;;3.00;;
579;SDS011;276;48.392;9.950;2022-10-17T15:00:13;3.60;;;2.77;;
579;SDS011;276;48.392;9.950;2022-10-17T15:02:40;4.90;;;3.10;;
579;SDS011;276;48.392;9.950;2022-10-17T15:05:06;6.40;;;2.67;;
579;SDS011;276;48.392;9.950;2022-10-17T15:07:32;3.50;;;2.77;;
579;SDS011;276;48.392;9.950;2022-10-17T15:09:57;3.30;;;2.90;;
579;SDS011;276;48.392;9.950;2022-10-17T15:12:23;4.40;;;3.70;;
579;SDS011;276;48.392;9.950;2022-10-17T15:14:49;6.13;;;2.60;;
579;SDS011;276;48.392;9.950;2022-10-17T15:17:27;4.60;;;2.70;;
579;SDS011;276;48.392;9.950;2022-10-17T15:19:54;4.60;;;3.40;;
579;SDS011;276;48.392;9.950;2022-10-17T15:22:21;3.17;;;2.90;;
579;SDS011;276;48.392;9.950;2022-10-17T15:24:47;3.93;;;2.97;;
579;SDS011;276;48.392;9.950;2022-10-17T15:27:16;5.90;;;3.10;;
579;SDS011;276;48.392;9.950;2022-10-17T15:29:43;4.00;;;3.00;;
579;SDS011;276;48.392;9.950;2022-10-17T15:32:12;3.47;;;3.20;;
579;SDS011;276;48.392;9.950;2022-10-17T15:34:38;3.90;;;3.30;;
579;SDS011;276;48.392;9.950;2022-10-17T15:37:04;4.03;;;3.73;;
579;SDS011;276;48.392;9.950;2022-10-17T15:39:34;3.80;;;3.50;;
579;SDS011;276;48.392;9.950;2022-10-17T15:42:07;3.23;;;2.93;;
579;SDS011;276;48.392;9.950;2022-10-17T15:44:35;3.97;;;3.67;;
579;SDS011;276;48.392;9.950;2022-10-17T15:47:01;4.60;;;2.90;;
579;SDS011;276;48.392;9.950;2022-10-17T15:49:29;4.10;;;2.90;;
579;SDS011;276;48.392;9.950;2022-10-17T15:51:57;3.80;;;3.20;;
579;SDS011;276;48.392;9.950;2022-10-17T15:54:25;5.57;;;2.63;;
579;SDS011;276;48.392;9.950;2022-10-17T15:56:54;6.70;;;2.70;;
579;SDS011;276;48.392;9.950;2022-10-17T15:59:24;5.07;;;3.30;;
579;SDS011;276;48.392;9.950;2022-10-17T16:01:54;3.47;;;3.17;;
579;SDS011;276;48.392;9.950;2022-10-17T16:04:19;5.43;;;2.93;;
579;SDS011;276;48.392;9.950;2022-10-17T16:06:50;3.13;;;2.90;;
579;SDS011;276;48.392;9.950;2022-10-17T16:09:16;4.60;;;3.27;;
579;SDS011;276;48.392;9.950;2022-10-17T16:11:42;3.83;;;3.30;;
579;SDS011;276;48.392;9.950;2022-10-17T16:14:10;5.03;;;3.30;;
579;SDS011;276;48.392;9.950;2022-10-17T16:16:40;3.53;;;3.23;;
579;SDS011;276;48.392;9.950;2022-10-17T16:19:06;8.97;;;3.63;;
579;SDS011;276;48.392;9.950;2022-10-17T16:21:33;4.40;;;3.83;;
579;SDS011;276;48.392;9.950;2022-10-17T16:24:02;4.30;;;3.03;;
579;SDS011;276;48.392;9.950;2022-10-17T16:26:29;3.67;;;3.37;;
579;SDS011;276;48.392;9.950;2022-10-17T16:28:54;6.63;;;4.47;;
579;SDS011;276;48.392;9.950;2022-10-17T16:31:22;5.50;;;5.10;;
579;SDS011;276;48.392;9.950;2022-10-17T16:33:57;4.10;;;3.80;;
579;SDS011;276;48.392;9.950;2022-10-17T16:36:26;6.13;;;3.90;;
579;SDS011;276;48.392;9.950;2022-10-17T16:38:52;5.70;;;3.90;;
579;SDS011;276;48.392;9.950;2022-10-17T16:44:13;5.87;;;4.00;;
579;SDS011;276;48.392;9.950;2022-10-17T16:46:38;3.77;;;3.47;;
579;SDS011;276;48.392;9.950;2022-10-17T16:49:04;3.50;;;3.30;;
579;SDS011;276;48.392;9.950;2022-10-17T16:51:33;5.47;;;3.37;;
579;SDS011;276;48.392;9.950;2022-10-17T16:54:00;4.90;;;3.73;;
579;SDS011;276;48.392;9.950;2022-10-17T16:56:26;4.03;;;3.47;;
579;SDS011;276;48.392;9.950;2022-10-17T16:58:56;6.43;;;3.60;;
579;SDS011;276;48.392;9.950;2022-10-17T17:01:24;3.63;;;3.33;;
579;SDS011;276;48.392;9.950;2022-10-17T17:03:50;6.33;;;3.20;;
579;SDS011;276;48.392;9.950;2022-10-17T17:06:20;4.77;;;3.73;;
579;SDS011;276;48.392;9.950;2022-10-17T17:08:48;4.47;;;4.17;;
579;SDS011;276;48.392;9.950;2022-10-17T17:11:17;5.10;;;4.70;;
579;SDS011;276;48.392;9.950;2022-10-17T17:13:44;5.30;;;4.60;;
579;SDS011;276;48.392;9.950;2022-10-17T17:16:11;8.83;;;4.27;;
579;SDS011;276;48.392;9.950;2022-10-17T17:18:42;8.53;;;4.50;;
579;SDS011;276;48.392;9.950;2022-10-17T17:21:09;4.43;;;3.60;;
579;SDS011;276;48.392;9.950;2022-10-17T17:23:37;6.90;;;4.07;;
579;SDS011;276;48.392;9.950;2022-10-17T17:26:05;4.03;;;3.30;;
579;SDS011;276;48.392;9.950;2022-10-17T17:28:53;5.07;;;4.67;;
579;SDS011;276;48.392;9.950;2022-10-17T17:31:22;7.53;;;6.90;;
579;SDS011;276;48.392;9.950;2022-10-17T17:33:50;8.47;;;7.77;;
579;SDS011;276;48.392;9.950;2022-10-17T17:36:18;6.17;;;5.60;;
579;SDS011;276;48.392;9.950;2022-10-17T17:38:48;4.70;;;3.93;;
579;SDS011;276;48.392;9.950;2022-10-17T17:41:16;6.30;;;4.20;;
579;SDS011;276;48.392;9.950;2022-10-17T17:43:48;6.70;;;4.10;;
579;SDS011;276;48.392;9.950;2022-10-17T17:46:17;5.30;;;4.83;;
579;SDS011;276;48.392;9.950;2022-10-17T17:48:44;5.90;;;5.50;;
579;SDS011;276;48.392;9.950;2022-10-17T17:51:14;5.90;;;5.40;;
579;SDS011;276;48.392;9.950;2022-10-17T17:53:42;5.53;;;5.03;;
579;SDS011;276;48.392;9.950;2022-10-17T17:56:08;11.40;;;7.80;;
579;SDS011;276;48.392;9.950;2022-10-17T17:58:40;7.83;;;7.13;;
579;SDS011;276;48.392;9.950;2022-10-17T18:01:19;5.83;;;5.23;;
579;SDS011;276;48.392;9.950;2022-10-17T18:03:46;6.53;;;5.10;;
579;SDS011;276;48.392;9.950;2022-10-17T18:06:13;4.30;;;4.00;;
579;SDS011;276;48.392;9.950;2022-10-17T18:08:44;6.27;;;5.40;;
579;SDS011;276;48.392;9.950;2022-10-17T18:11:14;5.03;;;4.63;;
579;SDS011;276;48.392;9.950;2022-10-17T18:13:39;4.93;;;4.53;;
579;SDS011;276;48.392;9.950;2022-10-17T18:16:05;5.47;;;5.00;;
579;SDS011;276;48.392;9.950;2022-10-17T18:18:37;6.37;;;5.70;;
579;SDS011;276;48.392;9.950;2022-10-17T18:21:05;5.87;;;5.37;;
579;SDS011;276;48.392;9.950;2022-10-17T18:23:36;4.70;;;4.40;;
579;SDS011;276;48.392;9.950;2022-10-17T18:26:03;6.70;;;4.60;;
579;SDS011;276;48.392;9.950;2022-10-17T18:28:31;5.77;;;5.27;;
579;SDS011;276;48.392;9.950;2022-10-17T18:31:04;21.07;;;14.20;;
579;SDS011;276;48.392;9.950;2022-10-17T18:33:45;15.70;;;12.03;;
579;SDS011;276;48.392;9.950;2022-10-17T18:36:12;25.97;;;15.90;;
579;SDS011;276;48.392;9.950;2022-10-17T18:38:38;32.33;;;22.37;;
579;SDS011;276;48.392;9.950;2022-10-17T18:41:05;35.90;;;22.83;;